sensor_id;sensor_type;location;lat;lon;timestamp;P1;durP1;ratioP1;P2;durP2;ratioP2
15198;SDS011;7700;48.654;9.070;2023-02-28T00:00:10;2.47;;;2.27;;
15198;SDS011;7700;48.654;9.070;2023-02-28T00:02:37;3.40;;;2.33;;
15198;SDS011;7700;48.654;9.070;2023-02-28T00:05:03;3.17;;;2.53;;
15198;SDS011;7700;48.654;9.070;2023-02-28T00:07:30;2.40;;;2.20;;
15198;SDS011;7700;48.654;9.070;2023-02-28T00:09:56;2.73;;;2.47;;
15198;SDS011;7700;48.654;9.070;2023-02-28T00:12:22;2.40;;;2.20;;
15198;SDS011;7700;48.654;9.070;2023-02-28T00:14:48;2.50;;;2.30;;
15198;SDS011;7700;48.654;9.070;2023-02-28T00:17:14;2.70;;;2.50;;
15198;SDS011;7700;48.654;9.070;2023-02-28T00:19:42;3.17;;;2.87;;
15198;SDS011;7700;48.654;9.070;2023-02-28T00:22:09;2.43;;;2.23;;
15198;SDS011;7700;48.654;9.070;2023-02-28T00:24:35;2.47;;;1.93;;
15198;SDS011;7700;48.654;9.070;2023-02-28T00:27:01;4.00;;;2.67;;
15198;SDS011;7700;48.654;9.070;2023-02-28T00:29:27;3.03;;;2.40;;
15198;SDS011;7700;48.654;9.070;2023-02-28T00:31:53;3.10;;;2.80;;
15198;SDS011;7700;48.654;9.070;2023-02-28T00:34:19;2.60;;;2.40;;
15198;SDS011;7700;48.654;9.070;2023-02-28T00:36:45;3.83;;;2.80;;
15198;SDS011;7700;48.654;9.070;2023-02-28T00:39:13;3.83;;;2.40;;
15198;SDS011;7700;48.654;9.070;2023-02-28T00:41:39;2.63;;;2.40;;
15198;SDS011;7700;48.654;9.070;2023-02-28T00:44:05;2.77;;;2.50;;
15198;SDS011;7700;48.654;9.070;2023-02-28T00:46:31;2.83;;;2.40;;
15198;SDS011;7700;48.654;9.070;2023-02-28T00:48:57;3.43;;;2.57;;
15198;SDS011;7700;48.654;9.070;2023-02-28T00:51:23;3.20;;;2.43;;
15198;SDS011;7700;48.654;9.070;2023-02-28T00:53:49;2.77;;;2.57;;
15198;SDS011;7700;48.654;9.070;2023-02-28T00:56:15;3.83;;;1.97;;
15198;SDS011;7700;48.654;9.070;2023-02-28T00:58:41;2.30;;;2.10;;
15198;SDS011;7700;48.654;9.070;2023-02-28T01:01:07;4.47;;;2.43;;
15198;SDS011;7700;48.654;9.070;2023-02-28T01:03:33;2.97;;;2.33;;
15198;SDS011;7700;48.654;9.070;2023-02-28T01:05:59;3.20;;;2.60;;
15198;SDS011;7700;48.654;9.070;2023-02-28T01:08:26;3.07;;;2.53;;
15198;SDS011;7700;48.654;9.070;2023-02-28T01:10:52;2.33;;;2.13;;
15198;SDS011;7700;48.654;9.070;2023-02-28T01:13:18;4.03;;;2.63;;
15198;SDS011;7700;48.654;9.070;2023-02-28T01:15:50;2.57;;;2.37;;
15198;SDS011;7700;48.654;9.070;2023-02-28T01:18:16;2.50;;;2.20;;
15198;SDS011;7700;48.654;9.070;2023-02-28T01:20:43;3.63;;;2.40;;
15198;SDS011;7700;48.654;9.070;2023-02-28T01:23:11;2.57;;;2.37;;
15198;SDS011;7700;48.654;9.070;2023-02-28T01:25:37;2.83;;;2.60;;
15198;SDS011;7700;48.654;9.070;2023-02-28T01:28:03;2.67;;;2.43;;
15198;SDS011;7700;48.654;9.070;2023-02-28T01:30:29;2.87;;;2.60;;
15198;SDS011;7700;48.654;9.070;2023-02-28T01:32:55;3.50;;;2.40;;
15198;SDS011;7700;48.654;9.070;2023-02-28T01:35:21;6.57;;;2.70;;
15198;SDS011;7700;48.654;9.070;2023-02-28T01:37:47;3.70;;;2.27;;
15198;SDS011;7700;48.654;9.070;2023-02-28T01:40:13;4.27;;;2.40;;
15198;SDS011;7700;48.654;9.070;2023-02-28T01:42:39;2.60;;;2.40;;
15198;SDS011;7700;48.654;9.070;2023-02-28T01:45:19;3.93;;;2.50;;
15198;SDS011;7700;48.654;9.070;2023-02-28T01:47:47;3.90;;;3.20;;
15198;SDS011;7700;48.654;9.070;2023-02-28T01:50:15;3.27;;;2.40;;
15198;SDS011;7700;48.654;9.070;2023-02-28T01:52:42;3.63;;;2.90;;
15198;SDS011;7700;48.654;9.070;2023-02-28T01:55:08;3.57;;;2.70;;
15198;SDS011;7700;48.654;9.070;2023-02-28T01:57:38;3.17;;;2.87;;
15198;SDS011;7700;48.654;9.070;2023-02-28T02:00:06;2.93;;;2.50;;
15198;SDS011;7700;48.654;9.070;2023-02-28T02:02:34;3.97;;;2.83;;
15198;SDS011;7700;48.654;9.070;2023-02-28T02:05:05;2.73;;;2.53;;
15198;SDS011;7700;48.654;9.070;2023-02-28T02:07:32;3.53;;;2.90;;
15198;SDS011;7700;48.654;9.070;2023-02-28T02:10:04;4.17;;;3.13;;
15198;SDS011;7700;48.654;9.070;2023-02-28T02:15:16;3.57;;;2.80;;
15198;SDS011;7700;48.654;9.070;2023-02-28T02:17:48;4.07;;;3.27;;
15198;SDS011;7700;48.654;9.070;2023-02-28T02:25:54;4.30;;;3.33;;
15198;SDS011;7700;48.654;9.070;2023-02-28T02:28:24;3.00;;;2.60;;
15198;SDS011;7700;48.654;9.070;2023-02-28T02:36:17;3.23;;;2.90;;
15198;SDS011;7700;48.654;9.070;2023-02-28T02:41:40;2.83;;;2.60;;
15198;SDS011;7700;48.654;9.070;2023-02-28T02:46:37;4.73;;;3.63;;
15198;SDS011;7700;48.654;9.070;2023-02-28T02:49:05;3.20;;;2.90;;
15198;SDS011;7700;48.654;9.070;2023-02-28T02:51:32;4.43;;;3.60;;
15198;SDS011;7700;48.654;9.070;2023-02-28T02:56:36;3.20;;;2.90;;
15198;SDS011;7700;48.654;9.070;2023-02-28T02:59:06;4.53;;;3.20;;
15198;SDS011;7700;48.654;9.070;2023-02-28T03:01:34;4.73;;;3.30;;
15198;SDS011;7700;48.654;9.070;2023-02-28T03:04:01;3.67;;;3.10;;
15198;SDS011;7700;48.654;9.070;2023-02-28T03:06:28;3.37;;;3.07;;
15198;SDS011;7700;48.654;9.070;2023-02-28T03:08:54;3.47;;;3.00;;
15198;SDS011;7700;48.654;9.070;2023-02-28T03:11:20;3.90;;;2.97;;
15198;SDS011;7700;48.654;9.070;2023-02-28T03:21:16;3.67;;;3.37;;
15198;SDS011;7700;48.654;9.070;2023-02-28T03:23:48;5.23;;;3.50;;
15198;SDS011;7700;48.654;9.070;2023-02-28T03:26:20;5.33;;;4.00;;
15198;SDS011;7700;48.654;9.070;2023-02-28T03:28:56;5.93;;;4.67;;
15198;SDS011;7700;48.654;9.070;2023-02-28T03:31:30;4.07;;;3.67;;
15198;SDS011;7700;48.654;9.070;2023-02-28T03:34:11;3.63;;;3.33;;
15198;SDS011;7700;48.654;9.070;2023-02-28T03:36:41;3.63;;;3.33;;
15198;SDS011;7700;48.654;9.070;2023-02-28T03:39:12;5.17;;;3.40;;
15198;SDS011;7700;48.654;9.070;2023-02-28T03:41:47;4.57;;;3.97;;
15198;SDS011;7700;48.654;9.070;2023-02-28T03:44:16;4.67;;;4.20;;
15198;SDS011;7700;48.654;9.070;2023-02-28T03:46:48;3.80;;;3.50;;
15198;SDS011;7700;48.654;9.070;2023-02-28T03:49:20;4.33;;;3.93;;
15198;SDS011;7700;48.654;9.070;2023-02-28T03:51:47;5.47;;;4.87;;
15198;SDS011;7700;48.654;9.070;2023-02-28T03:54:17;4.67;;;4.17;;
15198;SDS011;7700;48.654;9.070;2023-02-28T03:59:15;3.50;;;3.20;;
15198;SDS011;7700;48.654;9.070;2023-02-28T04:01:45;4.90;;;4.10;;
15198;SDS011;7700;48.654;9.070;2023-02-28T04:04:11;4.80;;;3.90;;
15198;SDS011;7700;48.654;9.070;2023-02-28T04:06:38;4.47;;;4.07;;
15198;SDS011;7700;48.654;9.070;2023-02-28T04:09:06;9.20;;;4.20;;
15198;SDS011;7700;48.654;9.070;2023-02-28T04:11:34;4.90;;;4.37;;
15198;SDS011;7700;48.654;9.070;2023-02-28T04:14:00;6.13;;;4.40;;
15198;SDS011;7700;48.654;9.070;2023-02-28T04:16:27;5.20;;;4.30;;
15198;SDS011;7700;48.654;9.070;2023-02-28T04:18:53;4.77;;;4.27;;
15198;SDS011;7700;48.654;9.070;2023-02-28T04:21:30;4.47;;;3.90;;
15198;SDS011;7700;48.654;9.070;2023-02-28T04:23:57;5.10;;;4.60;;
15198;SDS011;7700;48.654;9.070;2023-02-28T04:26:25;6.90;;;4.13;;
15198;SDS011;7700;48.654;9.070;2023-02-28T04:28:51;4.63;;;4.23;;
15198;SDS011;7700;48.654;9.070;2023-02-28T04:31:17;4.40;;;4.03;;
15198;SDS011;7700;48.654;9.070;2023-02-28T04:33:43;4.83;;;4.43;;
15198;SDS011;7700;48.654;9.070;2023-02-28T04:36:09;5.13;;;4.63;;
15198;SDS011;7700;48.654;9.070;2023-02-28T04:38:36;4.73;;;4.20;;
15198;SDS011;7700;48.654;9.070;2023-02-28T04:41:02;5.40;;;4.90;;
15198;SDS011;7700;48.654;9.070;2023-02-28T04:43:29;4.90;;;4.40;;
15198;SDS011;7700;48.654;9.070;2023-02-28T04:45:57;5.50;;;4.33;;
15198;SDS011;7700;48.654;9.070;2023-02-28T04:48:24;5.63;;;4.40;;
15198;SDS011;7700;48.654;9.070;2023-02-28T04:50:50;4.13;;;3.83;;
15198;SDS011;7700;48.654;9.070;2023-02-28T04:53:16;6.20;;;4.20;;
15198;SDS011;7700;48.654;9.070;2023-02-28T04:55:44;5.07;;;4.40;;
15198;SDS011;7700;48.654;9.070;2023-02-28T04:58:10;5.60;;;4.37;;
15198;SDS011;7700;48.654;9.070;2023-02-28T05:00:36;5.70;;;4.37;;
15198;SDS011;7700;48.654;9.070;2023-02-28T05:03:02;5.80;;;4.97;;
15198;SDS011;7700;48.654;9.070;2023-02-28T05:05:28;4.87;;;4.33;;
15198;SDS011;7700;48.654;9.070;2023-02-28T05:07:54;5.60;;;5.00;;
15198;SDS011;7700;48.654;9.070;2023-02-28T05:10:21;4.93;;;4.53;;
15198;SDS011;7700;48.654;9.070;2023-02-28T05:12:47;5.90;;;4.40;;
15198;SDS011;7700;48.654;9.070;2023-02-28T05:15:14;5.20;;;4.70;;
15198;SDS011;7700;48.654;9.070;2023-02-28T05:17:40;5.50;;;5.00;;
15198;SDS011;7700;48.654;9.070;2023-02-28T05:20:07;6.00;;;5.00;;
15198;SDS011;7700;48.654;9.070;2023-02-28T05:22:35;5.80;;;5.20;;
15198;SDS011;7700;48.654;9.070;2023-02-28T05:25:02;5.37;;;4.33;;
15198;SDS011;7700;48.654;9.070;2023-02-28T05:27:28;5.17;;;4.67;;
15198;SDS011;7700;48.654;9.070;2023-02-28T05:29:54;5.53;;;4.73;;
15198;SDS011;7700;48.654;9.070;2023-02-28T05:32:20;6.27;;;5.63;;
15198;SDS011;7700;48.654;9.070;2023-02-28T05:34:46;5.80;;;4.80;;
15198;SDS011;7700;48.654;9.070;2023-02-28T05:37:12;5.63;;;5.07;;
15198;SDS011;7700;48.654;9.070;2023-02-28T05:39:38;6.77;;;5.30;;
15198;SDS011;7700;48.654;9.070;2023-02-28T05:42:05;7.63;;;5.70;;
15198;SDS011;7700;48.654;9.070;2023-02-28T05:44:31;7.73;;;5.50;;
15198;SDS011;7700;48.654;9.070;2023-02-28T05:46:57;6.13;;;5.30;;
15198;SDS011;7700;48.654;9.070;2023-02-28T05:49:23;7.97;;;6.27;;
15198;SDS011;7700;48.654;9.070;2023-02-28T05:51:49;7.13;;;6.37;;
15198;SDS011;7700;48.654;9.070;2023-02-28T05:54:15;6.27;;;5.23;;
15198;SDS011;7700;48.654;9.070;2023-02-28T05:56:41;7.20;;;5.40;;
15198;SDS011;7700;48.654;9.070;2023-02-28T05:59:10;5.83;;;5.23;;
15198;SDS011;7700;48.654;9.070;2023-02-28T06:01:37;6.97;;;5.80;;
15198;SDS011;7700;48.654;9.070;2023-02-28T06:04:04;6.97;;;5.60;;
15198;SDS011;7700;48.654;9.070;2023-02-28T06:06:30;9.00;;;5.70;;
15198;SDS011;7700;48.654;9.070;2023-02-28T06:08:59;7.03;;;6.27;;
15198;SDS011;7700;48.654;9.070;2023-02-28T06:11:25;6.03;;;5.37;;
15198;SDS011;7700;48.654;9.070;2023-02-28T06:13:58;8.33;;;5.80;;
15198;SDS011;7700;48.654;9.070;2023-02-28T06:16:26;6.43;;;5.50;;
15198;SDS011;7700;48.654;9.070;2023-02-28T06:18:52;7.70;;;6.00;;
15198;SDS011;7700;48.654;9.070;2023-02-28T06:21:20;7.40;;;5.77;;
15198;SDS011;7700;48.654;9.070;2023-02-28T06:23:46;7.17;;;5.57;;
15198;SDS011;7700;48.654;9.070;2023-02-28T06:26:12;7.97;;;6.00;;
15198;SDS011;7700;48.654;9.070;2023-02-28T06:28:38;8.30;;;6.10;;
15198;SDS011;7700;48.654;9.070;2023-02-28T06:31:06;7.60;;;5.73;;
15198;SDS011;7700;48.654;9.070;2023-02-28T06:33:32;7.90;;;6.03;;
15198;SDS011;7700;48.654;9.070;2023-02-28T06:35:58;8.33;;;6.70;;
15198;SDS011;7700;48.654;9.070;2023-02-28T06:38:24;7.40;;;6.33;;
15198;SDS011;7700;48.654;9.070;2023-02-28T06:40:54;7.43;;;6.73;;
15198;SDS011;7700;48.654;9.070;2023-02-28T06:43:20;7.20;;;5.83;;
15198;SDS011;7700;48.654;9.070;2023-02-28T06:45:46;7.43;;;6.63;;
15198;SDS011;7700;48.654;9.070;2023-02-28T06:48:12;6.27;;;5.60;;
15198;SDS011;7700;48.654;9.070;2023-02-28T06:50:38;8.13;;;6.40;;
15198;SDS011;7700;48.654;9.070;2023-02-28T06:53:04;7.67;;;6.60;;
15198;SDS011;7700;48.654;9.070;2023-02-28T06:55:30;7.47;;;6.77;;
15198;SDS011;7700;48.654;9.070;2023-02-28T06:57:57;7.13;;;5.80;;
15198;SDS011;7700;48.654;9.070;2023-02-28T07:00:23;8.00;;;6.47;;
15198;SDS011;7700;48.654;9.070;2023-02-28T07:02:50;8.77;;;6.47;;
15198;SDS011;7700;48.654;9.070;2023-02-28T07:05:16;8.37;;;6.57;;
15198;SDS011;7700;48.654;9.070;2023-02-28T07:07:42;7.23;;;6.53;;
15198;SDS011;7700;48.654;9.070;2023-02-28T07:10:11;9.23;;;7.87;;
15198;SDS011;7700;48.654;9.070;2023-02-28T07:12:38;8.23;;;6.87;;
15198;SDS011;7700;48.654;9.070;2023-02-28T07:15:04;7.43;;;6.30;;
15198;SDS011;7700;48.654;9.070;2023-02-28T07:17:30;7.53;;;6.73;;
15198;SDS011;7700;48.654;9.070;2023-02-28T07:19:56;14.10;;;7.50;;
15198;SDS011;7700;48.654;9.070;2023-02-28T07:22:22;7.80;;;7.00;;
15198;SDS011;7700;48.654;9.070;2023-02-28T07:24:49;7.23;;;6.53;;
15198;SDS011;7700;48.654;9.070;2023-02-28T07:27:16;8.53;;;6.47;;
15198;SDS011;7700;48.654;9.070;2023-02-28T07:29:49;8.00;;;6.93;;
15198;SDS011;7700;48.654;9.070;2023-02-28T07:32:15;7.33;;;6.13;;
15198;SDS011;7700;48.654;9.070;2023-02-28T07:34:41;9.73;;;8.07;;
15198;SDS011;7700;48.654;9.070;2023-02-28T07:37:07;8.40;;;6.77;;
15198;SDS011;7700;48.654;9.070;2023-02-28T07:39:33;8.37;;;7.30;;
15198;SDS011;7700;48.654;9.070;2023-02-28T07:41:59;8.43;;;7.50;;
15198;SDS011;7700;48.654;9.070;2023-02-28T07:44:26;7.90;;;6.57;;
15198;SDS011;7700;48.654;9.070;2023-02-28T07:46:53;9.43;;;7.20;;
15198;SDS011;7700;48.654;9.070;2023-02-28T07:49:19;8.90;;;7.13;;
15198;SDS011;7700;48.654;9.070;2023-02-28T07:51:45;9.90;;;7.27;;
15198;SDS011;7700;48.654;9.070;2023-02-28T07:54:11;9.07;;;7.10;;
15198;SDS011;7700;48.654;9.070;2023-02-28T07:56:36;8.57;;;7.20;;
15198;SDS011;7700;48.654;9.070;2023-02-28T07:59:02;8.97;;;7.40;;
15198;SDS011;7700;48.654;9.070;2023-02-28T08:01:28;8.27;;;6.77;;
15198;SDS011;7700;48.654;9.070;2023-02-28T08:03:54;8.60;;;7.07;;
15198;SDS011;7700;48.654;9.070;2023-02-28T08:06:24;10.57;;;8.07;;
15198;SDS011;7700;48.654;9.070;2023-02-28T08:08:51;8.57;;;6.83;;
15198;SDS011;7700;48.654;9.070;2023-02-28T08:11:17;9.83;;;7.70;;
15198;SDS011;7700;48.654;9.070;2023-02-28T08:13:44;8.60;;;7.70;;
15198;SDS011;7700;48.654;9.070;2023-02-28T08:16:10;12.70;;;10.60;;
15198;SDS011;7700;48.654;9.070;2023-02-28T08:18:37;8.03;;;7.10;;
15198;SDS011;7700;48.654;9.070;2023-02-28T08:21:08;10.50;;;8.30;;
15198;SDS011;7700;48.654;9.070;2023-02-28T08:23:35;10.47;;;8.10;;
15198;SDS011;7700;48.654;9.070;2023-02-28T08:26:02;8.70;;;7.50;;
15198;SDS011;7700;48.654;9.070;2023-02-28T08:28:28;8.63;;;7.73;;
15198;SDS011;7700;48.654;9.070;2023-02-28T08:30:54;8.33;;;7.50;;
15198;SDS011;7700;48.654;9.070;2023-02-28T08:33:20;9.83;;;7.60;;
15198;SDS011;7700;48.654;9.070;2023-02-28T08:35:46;8.50;;;7.70;;
15198;SDS011;7700;48.654;9.070;2023-02-28T08:38:12;8.27;;;7.47;;
15198;SDS011;7700;48.654;9.070;2023-02-28T08:40:38;8.10;;;7.23;;
15198;SDS011;7700;48.654;9.070;2023-02-28T08:43:05;12.80;;;7.30;;
15198;SDS011;7700;48.654;9.070;2023-02-28T08:45:31;10.30;;;8.30;;
15198;SDS011;7700;48.654;9.070;2023-02-28T08:47:57;8.17;;;7.33;;
15198;SDS011;7700;48.654;9.070;2023-02-28T08:50:23;8.50;;;6.87;;
15198;SDS011;7700;48.654;9.070;2023-02-28T08:52:49;9.60;;;8.13;;
15198;SDS011;7700;48.654;9.070;2023-02-28T08:55:16;8.03;;;7.10;;
15198;SDS011;7700;48.654;9.070;2023-02-28T08:57:43;9.33;;;7.47;;
15198;SDS011;7700;48.654;9.070;2023-02-28T09:00:09;9.50;;;7.77;;
15198;SDS011;7700;48.654;9.070;2023-02-28T09:02:38;8.80;;;7.93;;
15198;SDS011;7700;48.654;9.070;2023-02-28T09:05:04;9.57;;;8.37;;
15198;SDS011;7700;48.654;9.070;2023-02-28T09:07:30;10.30;;;8.30;;
15198;SDS011;7700;48.654;9.070;2023-02-28T09:09:56;11.40;;;8.07;;
15198;SDS011;7700;48.654;9.070;2023-02-28T09:12:26;11.40;;;8.63;;
15198;SDS011;7700;48.654;9.070;2023-02-28T09:14:52;8.17;;;7.33;;
15198;SDS011;7700;48.654;9.070;2023-02-28T09:17:18;9.00;;;7.63;;
15198;SDS011;7700;48.654;9.070;2023-02-28T09:19:44;9.50;;;7.73;;
15198;SDS011;7700;48.654;9.070;2023-02-28T09:22:11;8.50;;;7.47;;
15198;SDS011;7700;48.654;9.070;2023-02-28T09:24:37;9.13;;;7.70;;
15198;SDS011;7700;48.654;9.070;2023-02-28T09:27:03;9.53;;;8.20;;
15198;SDS011;7700;48.654;9.070;2023-02-28T09:29:30;9.17;;;7.80;;
15198;SDS011;7700;48.654;9.070;2023-02-28T09:31:56;8.87;;;7.80;;
15198;SDS011;7700;48.654;9.070;2023-02-28T09:34:25;10.47;;;8.20;;
15198;SDS011;7700;48.654;9.070;2023-02-28T09:36:51;8.87;;;7.87;;
15198;SDS011;7700;48.654;9.070;2023-02-28T09:39:19;10.07;;;7.50;;
15198;SDS011;7700;48.654;9.070;2023-02-28T09:41:47;10.63;;;8.47;;
15198;SDS011;7700;48.654;9.070;2023-02-28T09:44:57;9.47;;;8.57;;
15198;SDS011;7700;48.654;9.070;2023-02-28T09:49:46;8.90;;;8.00;;
15198;SDS011;7700;48.654;9.070;2023-02-28T09:52:20;8.40;;;7.50;;
15198;SDS011;7700;48.654;9.070;2023-02-28T09:54:46;8.67;;;7.77;;
15198;SDS011;7700;48.654;9.070;2023-02-28T09:57:20;9.03;;;6.90;;
15198;SDS011;7700;48.654;9.070;2023-02-28T10:03:36;9.23;;;8.30;;
15198;SDS011;7700;48.654;9.070;2023-02-28T10:06:11;8.70;;;7.17;;
15198;SDS011;7700;48.654;9.070;2023-02-28T10:08:40;8.37;;;6.03;;
15198;SDS011;7700;48.654;9.070;2023-02-28T10:11:10;8.70;;;7.80;;
15198;SDS011;7700;48.654;9.070;2023-02-28T10:18:59;8.43;;;7.63;;
15198;SDS011;7700;48.654;9.070;2023-02-28T10:21:51;10.27;;;7.50;;
15198;SDS011;7700;48.654;9.070;2023-02-28T10:26:43;9.60;;;8.47;;
15198;SDS011;7700;48.654;9.070;2023-02-28T10:29:10;8.07;;;7.20;;
15198;SDS011;7700;48.654;9.070;2023-02-28T10:31:37;9.63;;;8.50;;
15198;SDS011;7700;48.654;9.070;2023-02-28T10:34:04;9.00;;;7.97;;
15198;SDS011;7700;48.654;9.070;2023-02-28T10:36:31;9.67;;;8.10;;
15198;SDS011;7700;48.654;9.070;2023-02-28T10:38:57;9.03;;;8.13;;
15198;SDS011;7700;48.654;9.070;2023-02-28T10:41:31;8.27;;;7.30;;
15198;SDS011;7700;48.654;9.070;2023-02-28T10:44:13;10.03;;;7.90;;
15198;SDS011;7700;48.654;9.070;2023-02-28T10:46:39;8.57;;;7.17;;
15198;SDS011;7700;48.654;9.070;2023-02-28T10:49:11;9.97;;;8.13;;
15198;SDS011;7700;48.654;9.070;2023-02-28T10:51:39;10.57;;;8.20;;
15198;SDS011;7700;48.654;9.070;2023-02-28T10:54:05;8.77;;;7.87;;
15198;SDS011;7700;48.654;9.070;2023-02-28T10:56:31;11.07;;;8.97;;
15198;SDS011;7700;48.654;9.070;2023-02-28T10:58:59;11.57;;;8.30;;
15198;SDS011;7700;48.654;9.070;2023-02-28T11:04:01;8.47;;;7.33;;
15198;SDS011;7700;48.654;9.070;2023-02-28T11:06:32;9.13;;;7.87;;
15198;SDS011;7700;48.654;9.070;2023-02-28T11:08:59;9.07;;;8.17;;
15198;SDS011;7700;48.654;9.070;2023-02-28T11:11:26;9.70;;;7.30;;
15198;SDS011;7700;48.654;9.070;2023-02-28T11:13:54;9.93;;;8.20;;
15198;SDS011;7700;48.654;9.070;2023-02-28T11:16:21;10.13;;;8.50;;
15198;SDS011;7700;48.654;9.070;2023-02-28T11:18:49;8.70;;;7.80;;
15198;SDS011;7700;48.654;9.070;2023-02-28T11:21:19;9.33;;;8.43;;
15198;SDS011;7700;48.654;9.070;2023-02-28T11:23:46;8.20;;;7.40;;
15198;SDS011;7700;48.654;9.070;2023-02-28T11:26:13;8.80;;;7.90;;
15198;SDS011;7700;48.654;9.070;2023-02-28T11:28:40;10.47;;;8.10;;
15198;SDS011;7700;48.654;9.070;2023-02-28T11:31:15;10.73;;;8.57;;
15198;SDS011;7700;48.654;9.070;2023-02-28T11:33:46;9.30;;;8.10;;
15198;SDS011;7700;48.654;9.070;2023-02-28T11:36:15;9.17;;;8.20;;
15198;SDS011;7700;48.654;9.070;2023-02-28T11:38:42;9.73;;;8.67;;
15198;SDS011;7700;48.654;9.070;2023-02-28T11:41:27;8.83;;;7.93;;
15198;SDS011;7700;48.654;9.070;2023-02-28T11:44:02;8.53;;;7.07;;
15198;SDS011;7700;48.654;9.070;2023-02-28T11:51:28;9.37;;;8.37;;
15198;SDS011;7700;48.654;9.070;2023-02-28T11:54:20;9.50;;;8.60;;
15198;SDS011;7700;48.654;9.070;2023-02-28T11:56:51;9.37;;;8.30;;
15198;SDS011;7700;48.654;9.070;2023-02-28T12:04:48;9.00;;;8.10;;
15198;SDS011;7700;48.654;9.070;2023-02-28T12:07:19;9.80;;;8.73;;
15198;SDS011;7700;48.654;9.070;2023-02-28T12:12:21;8.87;;;7.40;;
15198;SDS011;7700;48.654;9.070;2023-02-28T12:17:39;8.80;;;7.53;;
15198;SDS011;7700;48.654;9.070;2023-02-28T12:20:25;9.50;;;8.60;;
15198;SDS011;7700;48.654;9.070;2023-02-28T12:28:02;9.07;;;8.13;;
15198;SDS011;7700;48.654;9.070;2023-02-28T12:30:30;9.13;;;7.73;;
15198;SDS011;7700;48.654;9.070;2023-02-28T12:33:00;12.43;;;11.00;;
15198;SDS011;7700;48.654;9.070;2023-02-28T12:35:32;10.53;;;9.43;;
15198;SDS011;7700;48.654;9.070;2023-02-28T12:38:04;19.43;;;14.60;;
15198;SDS011;7700;48.654;9.070;2023-02-28T12:40:33;8.43;;;7.63;;
15198;SDS011;7700;48.654;9.070;2023-02-28T12:43:05;8.10;;;7.30;;
15198;SDS011;7700;48.654;9.070;2023-02-28T12:48:05;8.30;;;7.50;;
15198;SDS011;7700;48.654;9.070;2023-02-28T12:50:33;9.63;;;8.07;;
15198;SDS011;7700;48.654;9.070;2023-02-28T12:53:05;8.57;;;7.03;;
15198;SDS011;7700;48.654;9.070;2023-02-28T13:01:04;7.67;;;6.83;;
15198;SDS011;7700;48.654;9.070;2023-02-28T13:06:03;8.87;;;7.97;;
15198;SDS011;7700;48.654;9.070;2023-02-28T13:08:42;8.47;;;7.70;;
15198;SDS011;7700;48.654;9.070;2023-02-28T13:14:02;7.73;;;7.00;;
15198;SDS011;7700;48.654;9.070;2023-02-28T13:16:46;8.07;;;7.10;;
15198;SDS011;7700;48.654;9.070;2023-02-28T13:19:15;8.10;;;7.30;;
15198;SDS011;7700;48.654;9.070;2023-02-28T13:21:43;8.53;;;7.70;;
15198;SDS011;7700;48.654;9.070;2023-02-28T13:24:10;9.10;;;8.00;;
15198;SDS011;7700;48.654;9.070;2023-02-28T13:31:29;8.70;;;7.77;;
15198;SDS011;7700;48.654;9.070;2023-02-28T13:36:28;9.07;;;8.17;;
15198;SDS011;7700;48.654;9.070;2023-02-28T13:46:33;9.70;;;8.50;;
15198;SDS011;7700;48.654;9.070;2023-02-28T13:49:20;9.50;;;8.60;;
15198;SDS011;7700;48.654;9.070;2023-02-28T13:51:46;10.00;;;9.00;;
15198;SDS011;7700;48.654;9.070;2023-02-28T13:54:16;9.47;;;8.57;;
15198;SDS011;7700;48.654;9.070;2023-02-28T13:56:47;14.43;;;9.53;;
15198;SDS011;7700;48.654;9.070;2023-02-28T14:02:12;10.77;;;9.33;;
15198;SDS011;7700;48.654;9.070;2023-02-28T14:07:29;9.20;;;8.17;;
15198;SDS011;7700;48.654;9.070;2023-02-28T14:10:01;8.97;;;8.07;;
15198;SDS011;7700;48.654;9.070;2023-02-28T14:15:57;9.33;;;8.53;;
15198;SDS011;7700;48.654;9.070;2023-02-28T14:18:14;10.07;;;7.67;;
15198;SDS011;7700;48.654;9.070;2023-02-28T14:20:41;9.13;;;8.23;;
15198;SDS011;7700;48.654;9.070;2023-02-28T14:23:43;9.30;;;8.40;;
15198;SDS011;7700;48.654;9.070;2023-02-28T14:26:09;8.83;;;8.03;;
15198;SDS011;7700;48.654;9.070;2023-02-28T14:31:29;9.27;;;8.37;;
15198;SDS011;7700;48.654;9.070;2023-02-28T14:34:02;9.17;;;8.10;;
15198;SDS011;7700;48.654;9.070;2023-02-28T14:36:35;9.27;;;8.40;;
15198;SDS011;7700;48.654;9.070;2023-02-28T14:39:05;9.47;;;8.17;;
15198;SDS011;7700;48.654;9.070;2023-02-28T14:44:00;9.63;;;8.63;;
15198;SDS011;7700;48.654;9.070;2023-02-28T14:46:28;8.90;;;8.00;;
15198;SDS011;7700;48.654;9.070;2023-02-28T14:48:55;8.87;;;7.97;;
15198;SDS011;7700;48.654;9.070;2023-02-28T14:51:22;9.13;;;8.10;;
15198;SDS011;7700;48.654;9.070;2023-02-28T14:53:50;10.20;;;8.47;;
15198;SDS011;7700;48.654;9.070;2023-02-28T14:56:38;8.27;;;7.17;;
15198;SDS011;7700;48.654;9.070;2023-02-28T14:59:05;8.57;;;7.77;;
15198;SDS011;7700;48.654;9.070;2023-02-28T15:01:31;9.03;;;8.13;;
15198;SDS011;7700;48.654;9.070;2023-02-28T15:04:03;8.80;;;8.00;;
15198;SDS011;7700;48.654;9.070;2023-02-28T15:06:29;10.23;;;7.93;;
15198;SDS011;7700;48.654;9.070;2023-02-28T15:09:09;9.53;;;8.23;;
15198;SDS011;7700;48.654;9.070;2023-02-28T15:11:35;9.30;;;8.40;;
15198;SDS011;7700;48.654;9.070;2023-02-28T15:14:01;9.87;;;8.37;;
15198;SDS011;7700;48.654;9.070;2023-02-28T15:16:30;8.57;;;7.67;;
15198;SDS011;7700;48.654;9.070;2023-02-28T15:18:58;9.20;;;8.23;;
15198;SDS011;7700;48.654;9.070;2023-02-28T15:21:29;8.77;;;7.60;;
15198;SDS011;7700;48.654;9.070;2023-02-28T15:24:01;8.93;;;8.03;;
15198;SDS011;7700;48.654;9.070;2023-02-28T15:26:36;10.57;;;8.80;;
15198;SDS011;7700;48.654;9.070;2023-02-28T15:29:05;13.17;;;9.50;;
15198;SDS011;7700;48.654;9.070;2023-02-28T15:31:32;12.13;;;9.53;;
15198;SDS011;7700;48.654;9.070;2023-02-28T15:34:02;11.97;;;9.30;;
15198;SDS011;7700;48.654;9.070;2023-02-28T15:36:29;10.80;;;8.40;;
15198;SDS011;7700;48.654;9.070;2023-02-28T15:38:58;10.67;;;9.57;;
15198;SDS011;7700;48.654;9.070;2023-02-28T15:41:35;12.53;;;10.33;;
15198;SDS011;7700;48.654;9.070;2023-02-28T15:47:06;10.07;;;8.90;;
15198;SDS011;7700;48.654;9.070;2023-02-28T15:49:39;11.00;;;9.23;;
15198;SDS011;7700;48.654;9.070;2023-02-28T15:52:09;14.83;;;9.73;;
15198;SDS011;7700;48.654;9.070;2023-02-28T15:54:37;11.97;;;9.87;;
15198;SDS011;7700;48.654;9.070;2023-02-28T15:57:04;11.13;;;9.63;;
15198;SDS011;7700;48.654;9.070;2023-02-28T15:59:33;9.17;;;8.30;;
15198;SDS011;7700;48.654;9.070;2023-02-28T16:04:34;9.70;;;8.67;;
15198;SDS011;7700;48.654;9.070;2023-02-28T16:07:02;9.10;;;7.90;;
15198;SDS011;7700;48.654;9.070;2023-02-28T16:09:28;8.60;;;7.70;;
15198;SDS011;7700;48.654;9.070;2023-02-28T16:11:56;9.77;;;8.43;;
15198;SDS011;7700;48.654;9.070;2023-02-28T16:14:26;8.73;;;7.90;;
15198;SDS011;7700;48.654;9.070;2023-02-28T16:16:55;8.50;;;7.67;;
15198;SDS011;7700;48.654;9.070;2023-02-28T16:19:22;9.33;;;7.70;;
15198;SDS011;7700;48.654;9.070;2023-02-28T16:21:48;8.70;;;7.90;;
15198;SDS011;7700;48.654;9.070;2023-02-28T16:24:14;11.33;;;7.47;;
15198;SDS011;7700;48.654;9.070;2023-02-28T16:26:41;9.20;;;8.20;;
15198;SDS011;7700;48.654;9.070;2023-02-28T16:29:09;11.10;;;7.87;;
15198;SDS011;7700;48.654;9.070;2023-02-28T16:31:35;8.77;;;7.83;;
15198;SDS011;7700;48.654;9.070;2023-02-28T16:34:03;10.20;;;8.43;;
15198;SDS011;7700;48.654;9.070;2023-02-28T16:36:29;12.73;;;9.80;;
15198;SDS011;7700;48.654;9.070;2023-02-28T16:38:55;11.80;;;10.10;;
15198;SDS011;7700;48.654;9.070;2023-02-28T16:41:22;9.45;;;8.20;;
15198;SDS011;7700;48.654;9.070;2023-02-28T16:43:50;9.60;;;8.60;;
15198;SDS011;7700;48.654;9.070;2023-02-28T16:46:17;11.23;;;9.70;;
15198;SDS011;7700;48.654;9.070;2023-02-28T16:48:44;11.63;;;9.13;;
15198;SDS011;7700;48.654;9.070;2023-02-28T16:51:13;11.90;;;9.30;;
15198;SDS011;7700;48.654;9.070;2023-02-28T16:53:39;11.20;;;10.00;;
15198;SDS011;7700;48.654;9.070;2023-02-28T16:56:05;11.87;;;10.67;;
15198;SDS011;7700;48.654;9.070;2023-02-28T16:58:32;11.40;;;9.63;;
15198;SDS011;7700;48.654;9.070;2023-02-28T17:01:00;12.07;;;10.00;;